Time;durP1;ratioP1;P1;durP2;ratioP2;P2;SDS_P1;SDS_P2;PMS_P1;PMS_P2;Temp;Humidity;BMP_temperature;BMP_pressure;BME280_temperature;BME280_humidity;BME280_pressure;Samples;Min_cycle;Max_cycle;Signal;HPM_P1;HPM_P2
2020/12/23 00:02:18;;;;;;;;;;;11.10;89.60;;;;;;4985309;28;117374;-84
2020/12/23 00:04:50;;;;;;;;;;;11.10;88.90;;;;;;4984510;28;119478;-84
2020/12/23 00:07:15;;;;;;;;;;;11.20;88.50;;;;;;4984431;28;118516;-84
2020/12/23 00:09:47;;;;;;;;;;;11.20;88.80;;;;;;4984969;28;117232;-84
2020/12/23 00:12:13;;;;;;;;;;;11.20;88.80;;;;;;5001320;28;117760;-84
2020/12/23 00:14:43;;;;;;;;;;;11.20;89.30;;;;;;4984253;28;119449;-84
2020/12/23 00:17:16;;;;;;;;;;;11.20;89.40;;;;;;4984220;28;118234;-84
2020/12/23 00:19:47;;;;;;;;;;;11.20;89.70;;;;;;4984795;28;117716;-84
2020/12/23 00:22:18;;;;;;;;;;;11.20;89.50;;;;;;4985048;28;117466;-84
2020/12/23 00:24:53;;;;;;;;;;;11.20;89.00;;;;;;5000683;28;117657;-84
2020/12/23 00:27:19;;;;;;;;;;;11.20;88.70;;;;;;4984149;28;120253;-84
2020/12/23 00:29:49;;;;;;;;;;;11.20;89.30;;;;;;4984780;28;117636;-84
2020/12/23 00:32:18;;;;;;;;;;;11.20;89.50;;;;;;5001075;28;117822;-84
2020/12/23 00:34:48;;;;;;;;;;;11.20;89.30;;;;;;5000811;28;117401;-85
2020/12/23 00:37:23;;;;;;;;;;;11.20;90.00;;;;;;5000125;28;117428;-85
2020/12/23 00:39:52;;;;;;;;;;;11.20;89.90;;;;;;4984572;28;117918;-85
2020/12/23 00:42:21;;;;;;;;;;;11.20;89.00;;;;;;4985298;28;117324;-85
2020/12/23 00:44:46;;;;;;;;;;;11.20;89.70;;;;;;4983768;28;117471;-85
2020/12/23 00:47:12;;;;;;;;;;;11.20;88.50;;;;;;4983874;28;118414;-85
2020/12/23 00:49:51;;;;;;;;;;;;;;;;;;;;;
2020/12/23 00:52:16;;;;;;;;;;;11.20;88.50;;;;;;4999500;28;117581;-85
2020/12/23 00:54:45;;;;;;;;;;;11.20;89.00;;;;;;4983834;28;119231;-85
2020/12/23 00:57:11;;;;;;;;;;;11.20;89.60;;;;;;4983752;28;118425;-85
2020/12/23 00:59:39;;;;;;;;;;;11.20;89.60;;;;;;4983312;28;119518;-84
2020/12/23 01:02:10;;;;;;;;;;;11.20;88.20;;;;;;4984394;28;117390;-84
2020/12/23 01:04:39;;;;;;;;;;;11.20;88.20;;;;;;5000210;28;118825;-84
2020/12/23 01:07:11;;;;;;;;;;;11.20;89.40;;;;;;4983651;28;119529;-84
2020/12/23 01:09:42;;;;;;;;;;;11.20;89.60;;;;;;4983877;28;117804;-84
2020/12/23 01:12:07;;;;;;;;;;;11.20;88.00;;;;;;4984668;28;117645;-84
2020/12/23 01:14:35;;;;;;;;;;;11.30;88.50;;;;;;4999982;28;118795;-84
2020/12/23 01:17:04;;;;;;;;;;;11.30;87.80;;;;;;4983326;28;120070;-84
2020/12/23 01:19:39;;;;;;;;;;;11.30;88.10;;;;;;4984092;28;117384;-84
2020/12/23 01:22:05;;;;;;;;;;;11.30;89.30;;;;;;4984493;28;117885;-84
2020/12/23 01:24:39;;;;;;;;;;;11.30;88.00;;;;;;4983230;28;120782;-85
2020/12/23 01:27:11;;;;;;;;;;;11.30;89.30;;;;;;4982610;28;118087;-85
2020/12/23 01:29:43;;;;;;;;;;;11.30;89.80;;;;;;4983608;28;117577;-85
2020/12/23 01:32:11;;;;;;;;;;;11.30;90.10;;;;;;4984640;28;117500;-85
2020/12/23 01:34:46;;;;;;;;;;;11.30;90.20;;;;;;4983230;28;119253;-85
2020/12/23 01:37:18;;;;;;;;;;;11.30;89.70;;;;;;4998834;28;118407;-85
2020/12/23 01:39:46;;;;;;;;;;;11.30;88.30;;;;;;4983310;28;118426;-85
2020/12/23 01:42:12;;;;;;;;;;;11.30;88.70;;;;;;4984230;28;117819;-85
2020/12/23 01:44:38;;;;;;;;;;;11.30;89.00;;;;;;4986670;28;120818;-85
2020/12/23 01:47:22;;;;;;;;;;;11.30;89.60;;;;;;4986809;28;119307;-85
2020/12/23 01:49:48;;;;;;;;;;;11.30;88.60;;;;;;4987128;28;117428;-85
2020/12/23 01:52:15;;;;;;;;;;;11.30;88.50;;;;;;4987117;28;117863;-85
2020/12/23 01:54:42;;;;;;;;;;;11.30;88.50;;;;;;4985913;28;139203;-85
2020/12/23 01:57:20;;;;;;;;;;;11.30;87.70;;;;;;4985979;28;117904;-85
2020/12/23 01:59:46;;;;;;;;;;;11.30;89.20;;;;;;4986495;28;117686;-85
2020/12/23 02:02:12;;;;;;;;;;;11.30;88.90;;;;;;4987655;28;117504;-85
2020/12/23 02:04:43;;;;;;;;;;;11.30;88.80;;;;;;4987232;28;118699;-85
2020/12/23 02:07:11;;;;;;;;;;;11.30;88.10;;;;;;4985730;28;119663;-85
2020/12/23 02:09:37;;;;;;;;;;;11.30;89.30;;;;;;4987116;28;117530;-85
2020/12/23 02:12:05;;;;;;;;;;;11.30;89.10;;;;;;4987365;28;117445;-85
2020/12/23 02:14:30;;;;;;;;;;;11.30;89.50;;;;;;5002808;28;119206;-85
2020/12/23 02:16:58;;;;;;;;;;;11.30;88.30;;;;;;4985746;28;119188;-85
2020/12/23 02:19:27;;;;;;;;;;;11.30;90.20;;;;;;4986781;28;117837;-85
2020/12/23 02:21:58;;;;;;;;;;;11.30;89.20;;;;;;4987241;28;117518;-85
2020/12/23 02:24:26;;;;;;;;;;;11.30;89.50;;;;;;4986014;28;119003;-85
2020/12/23 02:26:55;;;;;;;;;;;11.30;88.70;;;;;;4985912;28;117774;-85
2020/12/23 02:29:29;;;;;;;;;;;11.30;87.80;;;;;;4985949;28;117440;-85
2020/12/23 02:31:58;;;;;;;;;;;11.30;88.10;;;;;;4987297;28;117362;-85
2020/12/23 02:34:23;;;;;;;;;;;11.30;88.90;;;;;;4985892;28;118742;-85
2020/12/23 02:36:49;;;;;;;;;;;11.30;88.70;;;;;;4985675;28;117938;-85
2020/12/23 02:39:14;;;;;;;;;;;11.30;90.00;;;;;;4986612;28;117544;-85
2020/12/23 02:41:45;;;;;;;;;;;11.30;88.30;;;;;;4986335;28;117776;-85
2020/12/23 02:44:13;;;;;;;;;;;11.30;88.60;;;;;;5002113;28;120292;-85
2020/12/23 02:46:44;;;;;;;;;;;11.30;89.20;;;;;;4985222;28;119271;-85
2020/12/23 02:49:12;;;;;;;;;;;11.40;89.00;;;;;;4986539;28;117476;-85
2020/12/23 02:51:40;;;;;;;;;;;11.30;89.10;;;;;;4986217;28;117392;-85
2020/12/23 02:54:13;;;;;;;;;;;11.30;88.80;;;;;;4985504;28;119197;-85
2020/12/23 02:56:42;;;;;;;;;;;11.30;89.20;;;;;;4985008;28;119742;-85
2020/12/23 02:59:10;;;;;;;;;;;11.30;89.20;;;;;;4985778;28;117651;-84
2020/12/23 03:01:37;;;;;;;;;;;11.30;88.90;;;;;;4986816;28;117905;-84
2020/12/23 03:04:06;;;;;;;;;;;11.40;88.30;;;;;;4985349;28;119407;-84
2020/12/23 03:06:35;;;;;;;;;;;11.40;89.50;;;;;;4984501;28;118798;-84
2020/12/23 03:09:03;;;;;;;;;;;11.40;89.70;;;;;;4985562;28;117770;-84
2020/12/23 03:11:34;;;;;;;;;;;11.40;89.00;;;;;;5003240;28;117721;-84
2020/12/23 03:14:03;;;;;;;;;;;11.30;88.70;;;;;;4985258;28;117475;-84
2020/12/23 03:16:28;;;;;;;;;;;11.40;89.30;;;;;;4985257;28;118408;-84
2020/12/23 03:18:54;;;;;;;;;;;11.40;90.10;;;;;;4984978;28;117579;-84
2020/12/23 03:21:28;;;;;;;;;;;11.30;90.00;;;;;;4986236;28;117754;-84
2020/12/23 03:23:57;;;;;;;;;;;11.30;88.90;;;;;;5001577;28;118506;-84
2020/12/23 03:26:22;;;;;;;;;;;11.40;89.10;;;;;;4984515;28;117916;-84
2020/12/23 03:28:50;;;;;;;;;;;11.30;89.60;;;;;;5002655;28;117844;-84
2020/12/23 03:31:19;;;;;;;;;;;11.40;89.60;;;;;;4985718;28;117376;-84
2020/12/23 03:33:47;;;;;;;;;;;11.30;90.00;;;;;;5001119;28;118759;-84
2020/12/23 03:36:13;;;;;;;;;;;11.40;90.00;;;;;;4984449;28;119218;-84
2020/12/23 03:38:44;;;;;;;;;;;11.40;90.10;;;;;;4984428;28;117377;-84
2020/12/23 03:41:13;;;;;;;;;;;11.40;89.90;;;;;;4985855;28;117558;-84
2020/12/23 03:43:59;;;;;;;;;;;11.40;90.30;;;;;;4984626;28;120360;-84
2020/12/23 03:46:30;;;;;;;;;;;11.30;90.20;;;;;;4983911;28;117906;-84
2020/12/23 03:49:12;;;;;;;;;;;11.30;89.70;;;;;;4985690;28;117472;-84
2020/12/23 03:51:43;;;;;;;;;;;11.30;88.70;;;;;;4986026;28;117290;-84
2020/12/23 03:54:14;;;;;;;;;;;11.40;89.60;;;;;;4984548;28;119533;-84
2020/12/23 03:56:40;;;;;;;;;;;11.40;90.30;;;;;;4984103;28;119875;-84
2020/12/23 03:59:13;;;;;;;;;;;11.30;89.60;;;;;;4984542;28;117568;-84
2020/12/23 04:01:41;;;;;;;;;;;11.40;89.60;;;;;;4986018;28;117823;-85
2020/12/23 04:04:11;;;;;;;;;;;11.40;90.10;;;;;;4984370;28;118330;-85
2020/12/23 04:06:43;;;;;;;;;;;11.40;90.20;;;;;;4983912;28;117559;-85
2020/12/23 04:09:11;;;;;;;;;;;11.40;89.50;;;;;;4985134;28;117493;-85
2020/12/23 04:11:36;;;;;;;;;;;11.40;89.50;;;;;;4985620;28;117416;-85
2020/12/23 04:14:03;;;;;;;;;;;11.40;89.00;;;;;;4984465;28;120758;-85
2020/12/23 04:16:29;;;;;;;;;;;11.40;89.70;;;;;;4984538;28;119674;-84
2020/12/23 04:18:57;;;;;;;;;;;11.40;89.50;;;;;;4984826;28;117476;-84
2020/12/23 04:21:23;;;;;;;;;;;11.40;90.40;;;;;;4984832;28;117483;-84
2020/12/23 04:23:51;;;;;;;;;;;11.40;89.80;;;;;;4984143;28;117481;-84
2020/12/23 04:26:17;;;;;;;;;;;11.40;89.70;;;;;;4983740;28;119258;-84
2020/12/23 04:28:42;;;;;;;;;;;11.40;89.80;;;;;;4985041;28;117235;-84
2020/12/23 04:31:18;;;;;;;;;;;;;;;;;;;;;
2020/12/23 04:33:52;;;;;;;;;;;11.40;90.40;;;;;;4998537;28;147511;-84
2020/12/23 04:36:24;;;;;;;;;;;11.40;90.30;;;;;;4983616;28;117356;-84
2020/12/23 04:38:52;;;;;;;;;;;11.40;90.30;;;;;;4985049;28;117608;-84
2020/12/23 04:41:21;;;;;;;;;;;11.40;90.20;;;;;;4984747;28;117746;-84
2020/12/23 04:43:46;;;;;;;;;;;11.40;90.30;;;;;;4983659;28;120287;-84
2020/12/23 04:46:14;;;;;;;;;;;11.40;90.40;;;;;;4983372;28;118327;-84
2020/12/23 04:48:42;;;;;;;;;;;11.40;90.10;;;;;;4984531;28;117697;-84
2020/12/23 04:51:29;;;;;;;;;;;11.40;90.10;;;;;;4984854;28;117740;-84
2020/12/23 04:53:54;;;;;;;;;;;11.40;89.80;;;;;;4997444;28;118200;-84
2020/12/23 04:56:19;;;;;;;;;;;11.40;89.50;;;;;;4983595;28;120005;-84
2020/12/23 04:58:50;;;;;;;;;;;11.40;90.40;;;;;;4983795;28;117938;-84
2020/12/23 05:01:15;;;;;;;;;;;11.40;90.00;;;;;;4984859;28;117375;-84
2020/12/23 05:03:41;;;;;;;;;;;11.40;90.30;;;;;;4983651;28;119521;-84
2020/12/23 05:06:09;;;;;;;;;;;11.40;89.40;;;;;;4983523;28;119314;-84
2020/12/23 05:08:35;;;;;;;;;;;11.40;90.30;;;;;;4984122;28;117509;-84
2020/12/23 05:11:13;;;;;;;;;;;11.40;90.60;;;;;;4984096;28;117798;-84
2020/12/23 05:13:39;;;;;;;;;;;11.40;89.80;;;;;;4983371;28;119045;-84
2020/12/23 05:16:05;;;;;;;;;;;11.40;90.70;;;;;;4983510;28;117324;-84
2020/12/23 05:18:33;;;;;;;;;;;11.40;90.20;;;;;;4983118;28;117979;-84
2020/12/23 05:20:59;;;;;;;;;;;11.40;90.10;;;;;;4984590;28;117858;-84
2020/12/23 05:23:45;;;;;;;;;;;11.40;90.10;;;;;;4983257;28;120535;-84
2020/12/23 05:26:22;;;;;;;;;;;11.40;90.20;;;;;;4982811;28;118435;-85
2020/12/23 05:29:08;;;;;;;;;;;11.40;89.60;;;;;;4984209;28;117469;-84
2020/12/23 05:31:42;;;;;;;;;;;11.40;90.50;;;;;;4984406;28;117467;-85
2020/12/23 05:34:13;;;;;;;;;;;11.40;90.50;;;;;;4999326;28;117818;-85
2020/12/23 05:36:41;;;;;;;;;;;11.40;90.00;;;;;;4982573;28;117797;-85
2020/12/23 05:39:27;;;;;;;;;;;11.40;90.40;;;;;;4978642;28;117824;-84
2020/12/23 05:41:58;;;;;;;;;;;11.40;90.20;;;;;;4998066;28;118300;-84
2020/12/23 05:44:33;;;;;;;;;;;11.40;90.50;;;;;;4999784;28;118766;-84
2020/12/23 05:47:01;;;;;;;;;;;11.40;90.40;;;;;;4999045;28;117250;-84
2020/12/23 05:49:32;;;;;;;;;;;11.40;90.20;;;;;;4982858;28;117459;-84
2020/12/23 05:52:04;;;;;;;;;;;11.40;90.20;;;;;;4983898;28;117379;-84
2020/12/23 05:54:38;;;;;;;;;;;11.40;90.20;;;;;;4983239;28;117652;-84
2020/12/23 05:57:03;;;;;;;;;;;11.40;90.20;;;;;;4999209;28;117799;-85
2020/12/23 05:59:37;;;;;;;;;;;11.40;90.10;;;;;;4983232;28;117791;-85
2020/12/23 06:02:03;;;;;;;;;;;11.40;90.20;;;;;;4999790;28;117879;-85
2020/12/23 06:04:35;;;;;;;;;;;11.40;90.10;;;;;;4981794;28;118770;-85
2020/12/23 06:07:13;;;;;;;;;;;11.40;90.40;;;;;;4982482;28;117700;-85
2020/12/23 06:09:51;;;;;;;;;;;11.40;90.00;;;;;;5000253;28;117425;-84
2020/12/23 06:12:22;;;;;;;;;;;11.40;90.00;;;;;;4984073;28;117388;-84
2020/12/23 06:14:58;;;;;;;;;;;11.40;90.00;;;;;;4997332;28;117546;-84
2020/12/23 06:17:24;;;;;;;;;;;11.40;90.00;;;;;;4979734;28;118637;-84
2020/12/23 06:19:50;;;;;;;;;;;11.40;90.00;;;;;;4983644;28;117352;-84
2020/12/23 06:22:16;;;;;;;;;;;11.40;89.90;;;;;;4983719;28;117930;-84
2020/12/23 06:24:41;;;;;;;;;;;11.40;89.90;;;;;;4982593;28;119306;-84
2020/12/23 06:27:10;;;;;;;;;;;11.50;89.90;;;;;;4983739;28;120367;-84
2020/12/23 06:29:37;;;;;;;;;;;11.40;89.70;;;;;;4986776;28;117454;-84
2020/12/23 06:32:03;;;;;;;;;;;11.40;89.60;;;;;;4989885;28;117447;-84
2020/12/23 06:34:29;;;;;;;;;;;11.40;89.70;;;;;;5005218;28;117525;-84
2020/12/23 06:36:55;;;;;;;;;;;11.40;89.50;;;;;;5005349;28;117998;-84
2020/12/23 06:39:21;;;;;;;;;;;11.40;89.50;;;;;;4988707;28;117324;-84
2020/12/23 06:42:38;;;;;;;;;;;11.40;89.60;;;;;;4987956;28;118291;-84
2020/12/23 06:51:04;;;;;;;;;;;;;;;;;;;;;
2020/12/23 06:53:59;;;;;;;;;;;11.40;89.70;;;;;;4945411;28;117599;-84
2020/12/23 06:56:43;;;;;;;;;;;11.40;89.50;;;;;;4927698;28;118697;-84
2020/12/23 06:59:16;;;;;;;;;;;11.40;89.40;;;;;;4964128;28;118403;-84
2020/12/23 07:02:03;;;;;;;;;;;11.50;89.50;;;;;;5002300;28;117592;-84
2020/12/23 07:04:51;;;;;;;;;;;11.40;89.50;;;;;;4986695;28;117945;-84
2020/12/23 07:08:03;;;;;;;;;;;;;;;;;;;;;
2020/12/23 07:10:32;;;;;;;;;;;11.40;89.30;;;;;;4944445;28;145476;-84
2020/12/23 07:12:57;;;;;;;;;;;11.50;89.40;;;;;;4979124;28;117406;-84
2020/12/23 07:15:29;;;;;;;;;;;11.40;89.50;;;;;;4986831;28;117917;-84
2020/12/23 07:18:07;;;;;;;;;;;11.40;89.70;;;;;;4985267;28;120199;-84
2020/12/23 07:21:07;;;;;;;;;;;11.40;89.50;;;;;;4984427;28;117637;-84
2020/12/23 07:23:35;;;;;;;;;;;11.50;89.40;;;;;;4987188;28;117487;-84
2020/12/23 07:26:05;;;;;;;;;;;11.50;89.40;;;;;;4986442;28;117855;-84
2020/12/23 07:28:36;;;;;;;;;;;11.50;89.40;;;;;;4985590;28;120865;-84
2020/12/23 07:31:01;;;;;;;;;;;11.40;89.30;;;;;;4985803;28;117773;-84
2020/12/23 07:33:27;;;;;;;;;;;11.40;89.30;;;;;;4986637;28;117802;-84
2020/12/23 07:35:54;;;;;;;;;;;11.50;89.40;;;;;;4987164;28;117770;-84
2020/12/23 07:38:20;;;;;;;;;;;11.40;89.40;;;;;;4985969;28;117509;-84
2020/12/23 07:40:49;;;;;;;;;;;11.50;89.20;;;;;;4984871;28;117587;-84
2020/12/23 07:43:15;;;;;;;;;;;11.50;89.30;;;;;;4986730;28;117276;-84
2020/12/23 07:45:43;;;;;;;;;;;11.50;89.20;;;;;;5003394;28;117595;-84
2020/12/23 07:48:35;;;;;;;;;;;11.50;89.20;;;;;;4985905;28;119349;-84
2020/12/23 07:51:03;;;;;;;;;;;11.50;89.30;;;;;;4982725;28;119908;-85
2020/12/23 07:53:29;;;;;;;;;;;11.50;89.20;;;;;;4985309;28;117411;-86
2020/12/23 07:56:05;;;;;;;;;;;11.50;89.30;;;;;;4985435;28;117370;-86
2020/12/23 07:58:57;;;;;;;;;;;11.50;89.70;;;;;;4984454;28;117499;-86
2020/12/23 08:01:23;;;;;;;;;;;11.50;89.40;;;;;;4984348;28;119657;-86
2020/12/23 08:03:48;;;;;;;;;;;11.50;89.60;;;;;;4985451;28;117455;-86
2020/12/23 08:06:31;;;;;;;;;;;11.50;89.60;;;;;;4986165;28;117935;-85
2020/12/23 08:09:14;;;;;;;;;;;11.50;89.50;;;;;;4985717;28;117569;-85
2020/12/23 08:11:43;;;;;;;;;;;11.50;89.40;;;;;;4984975;28;117507;-85
2020/12/23 08:14:11;;;;;;;;;;;11.50;89.50;;;;;;4973210;28;117547;-85
2020/12/23 08:16:40;;;;;;;;;;;11.50;89.50;;;;;;4985483;28;117826;-85
2020/12/23 08:19:06;;;;;;;;;;;11.50;89.60;;;;;;4984000;28;118464;-85
2020/12/23 08:21:32;;;;;;;;;;;11.50;89.50;;;;;;4984128;28;117908;-85
2020/12/23 08:24:03;;;;;;;;;;;11.50;89.50;;;;;;4985122;28;117493;-85
2020/12/23 08:26:29;;;;;;;;;;;11.50;89.40;;;;;;4985609;28;117686;-85
2020/12/23 08:28:55;;;;;;;;;;;11.50;89.40;;;;;;5001151;28;117417;-85
2020/12/23 08:31:35;;;;;;;;;;;;;;;;;;;;;
2020/12/23 08:34:04;;;;;;;;;;;11.50;89.40;;;;;;4999713;28;120628;-85
2020/12/23 08:36:35;;;;;;;;;;;11.50;89.40;;;;;;4984575;28;117458;-85
2020/12/23 08:39:03;;;;;;;;;;;11.50;89.40;;;;;;4983861;28;119559;-85
2020/12/23 08:41:34;;;;;;;;;;;11.50;89.40;;;;;;4984366;28;117364;-85
2020/12/23 08:44:00;;;;;;;;;;;11.50;89.40;;;;;;4984840;28;117322;-85
2020/12/23 08:46:28;;;;;;;;;;;11.50;89.20;;;;;;4985596;28;117832;-85
2020/12/23 08:49:00;;;;;;;;;;;11.50;89.20;;;;;;5000296;28;118360;-85
2020/12/23 08:51:26;;;;;;;;;;;11.50;89.10;;;;;;4983895;28;119915;-85
2020/12/23 08:53:52;;;;;;;;;;;11.50;89.30;;;;;;4984716;28;117627;-85
2020/12/23 08:56:36;;;;;;;;;;;11.50;89.20;;;;;;4985012;28;117824;-85
2020/12/23 08:59:03;;;;;;;;;;;11.50;89.30;;;;;;4999683;28;117729;-85
2020/12/23 09:01:31;;;;;;;;;;;11.50;89.30;;;;;;4997807;28;117504;-85
2020/12/23 09:04:03;;;;;;;;;;;11.50;89.00;;;;;;5001119;28;117445;-85
2020/12/23 09:06:37;;;;;;;;;;;11.50;89.00;;;;;;4984561;28;118093;-85
2020/12/23 09:09:19;;;;;;;;;;;11.50;89.20;;;;;;4983622;28;117857;-85
2020/12/23 09:11:53;;;;;;;;;;;11.50;89.00;;;;;;4983993;28;118932;-85
2020/12/23 09:14:22;;;;;;;;;;;11.50;88.90;;;;;;4984498;28;117480;-85
2020/12/23 09:17:06;;;;;;;;;;;11.50;89.00;;;;;;4984860;28;117967;-85
2020/12/23 09:19:47;;;;;;;;;;;11.50;88.90;;;;;;4983497;28;117724;-85
2020/12/23 09:22:24;;;;;;;;;;;11.50;88.90;;;;;;4983541;28;118718;-85
2020/12/23 09:24:50;;;;;;;;;;;11.50;88.70;;;;;;4984463;28;117448;-85
2020/12/23 09:27:20;;;;;;;;;;;11.50;88.60;;;;;;4983500;28;117288;-85
2020/12/23 09:29:51;;;;;;;;;;;11.50;88.90;;;;;;4983052;28;120192;-85
2020/12/23 09:32:19;;;;;;;;;;;11.50;88.60;;;;;;4983219;28;118175;-85
2020/12/23 09:34:47;;;;;;;;;;;11.50;88.80;;;;;;4984283;28;117489;-85
2020/12/23 09:37:12;;;;;;;;;;;11.50;88.60;;;;;;5001279;28;117819;-85
2020/12/23 09:39:41;;;;;;;;;;;11.50;88.70;;;;;;4982827;28;119384;-85
2020/12/23 09:42:07;;;;;;;;;;;11.50;88.70;;;;;;4983592;28;117425;-85
2020/12/23 09:44:33;;;;;;;;;;;11.50;89.00;;;;;;5000802;28;117371;-85
2020/12/23 09:47:01;;;;;;;;;;;11.50;89.20;;;;;;4984218;28;117825;-85
2020/12/23 09:49:37;;;;;;;;;;;11.50;88.60;;;;;;4982879;28;117816;-85
2020/12/23 09:52:03;;;;;;;;;;;11.50;88.60;;;;;;4982316;28;117432;-85
2020/12/23 09:54:29;;;;;;;;;;;11.50;88.50;;;;;;4983828;28;117492;-85
2020/12/23 09:56:57;;;;;;;;;;;11.50;89.00;;;;;;4984125;28;117520;-85
2020/12/23 09:59:28;;;;;;;;;;;11.50;88.70;;;;;;4982246;28;118789;-85
2020/12/23 10:01:54;;;;;;;;;;;11.60;88.90;;;;;;4983101;28;118574;-85
2020/12/23 10:04:29;;;;;;;;;;;11.50;88.50;;;;;;4985191;28;117546;-85
2020/12/23 10:06:55;;;;;;;;;;;11.60;88.70;;;;;;4987625;28;117711;-85
2020/12/23 10:09:23;;;;;;;;;;;11.50;89.10;;;;;;4986543;28;120498;-85
2020/12/23 10:11:54;;;;;;;;;;;11.60;88.80;;;;;;5003148;28;117663;-85
2020/12/23 10:14:32;;;;;;;;;;;11.60;88.50;;;;;;4986763;28;117527;-85
2020/12/23 10:17:01;;;;;;;;;;;11.60;88.50;;;;;;4986174;28;116990;-85
2020/12/23 10:20:11;;;;;;;;;;;11.60;88.50;;;;;;4985807;28;120522;-85
2020/12/23 10:22:24;;;;;;;;;;;11.60;88.50;;;;;;4991296;28;118146;-85
2020/12/23 10:24:53;;;;;;;;;;;11.60;88.40;;;;;;4987066;28;117606;-85
2020/12/23 10:27:18;;;;;;;;;;;11.60;88.50;;;;;;4987274;28;117318;-85
2020/12/23 10:30:02;;;;;;;;;;;11.60;88.30;;;;;;4985650;28;117739;-85
2020/12/23 10:32:34;;;;;;;;;;;11.60;88.60;;;;;;4985977;28;118141;-85
2020/12/23 10:35:12;;;;;;;;;;;11.60;88.50;;;;;;4986767;28;117689;-85
2020/12/23 10:37:42;;;;;;;;;;;11.60;88.60;;;;;;4987275;28;117329;-85
2020/12/23 10:40:10;;;;;;;;;;;11.60;88.30;;;;;;4985528;28;118618;-85
2020/12/23 10:42:40;;;;;;;;;;;11.60;88.00;;;;;;4985234;28;117733;-85
2020/12/23 10:45:22;;;;;;;;;;;11.60;88.30;;;;;;4986656;28;117535;-85
2020/12/23 10:47:51;;;;;;;;;;;11.60;88.00;;;;;;4987079;28;117354;-85
2020/12/23 10:50:48;;;;;;;;;;;11.60;88.30;;;;;;4984111;28;117621;-85
2020/12/23 10:53:14;;;;;;;;;;;11.60;88.00;;;;;;4985405;28;117997;-85
2020/12/23 10:55:40;;;;;;;;;;;11.60;88.00;;;;;;4986851;28;117528;-85
2020/12/23 10:58:08;;;;;;;;;;;11.60;88.30;;;;;;4986856;28;117343;-85
2020/12/23 11:00:37;;;;;;;;;;;11.60;88.30;;;;;;4985544;28;117476;-85
2020/12/23 11:03:08;;;;;;;;;;;11.60;88.30;;;;;;4985240;28;117667;-85
2020/12/23 11:05:37;;;;;;;;;;;11.60;88.20;;;;;;4986303;28;117591;-85
2020/12/23 11:08:25;;;;;;;;;;;11.60;88.30;;;;;;5002738;28;117970;-85
2020/12/23 11:10:56;;;;;;;;;;;11.60;87.90;;;;;;4985289;28;120831;-85
2020/12/23 11:13:22;;;;;;;;;;;11.60;88.70;;;;;;4985256;28;118057;-85
2020/12/23 11:15:50;;;;;;;;;;;11.60;88.40;;;;;;4986120;28;117550;-85
2020/12/23 11:18:21;;;;;;;;;;;11.60;88.70;;;;;;4986390;28;117854;-86
2020/12/23 11:20:49;;;;;;;;;;;11.60;88.20;;;;;;5001608;28;118678;-85
2020/12/23 11:23:29;;;;;;;;;;;11.60;88.20;;;;;;4985291;28;119346;-85
2020/12/23 11:25:55;;;;;;;;;;;11.60;88.00;;;;;;5002736;28;117318;-85
2020/12/23 11:28:24;;;;;;;;;;;11.60;88.50;;;;;;4986037;28;117603;-85
2020/12/23 11:30:49;;;;;;;;;;;11.70;88.40;;;;;;4984721;28;118733;-85
2020/12/23 11:33:15;;;;;;;;;;;11.60;88.00;;;;;;5001273;28;117565;-85
2020/12/23 11:35:41;;;;;;;;;;;11.60;88.20;;;;;;4985785;28;117529;-85
2020/12/23 11:38:07;;;;;;;;;;;11.60;88.00;;;;;;4986335;28;117392;-85
2020/12/23 11:40:32;;;;;;;;;;;11.60;88.30;;;;;;4985339;28;117298;-85
2020/12/23 11:43:03;;;;;;;;;;;11.60;88.20;;;;;;4984821;28;117507;-85
2020/12/23 11:45:28;;;;;;;;;;;11.60;88.30;;;;;;4985708;28;117797;-85
2020/12/23 11:47:54;;;;;;;;;;;11.60;88.10;;;;;;4986069;28;117537;-85
2020/12/23 11:50:20;;;;;;;;;;;11.60;87.70;;;;;;4984683;28;118417;-85
2020/12/23 11:52:48;;;;;;;;;;;11.70;88.10;;;;;;4984977;28;117604;-85
2020/12/23 11:55:18;;;;;;;;;;;11.60;88.00;;;;;;4985370;28;117548;-85
2020/12/23 11:57:47;;;;;;;;;;;11.60;88.00;;;;;;4985392;28;117502;-85
2020/12/23 12:00:16;;;;;;;;;;;11.70;88.20;;;;;;4984183;28;119679;-85
2020/12/23 12:03:02;;;;;;;;;;;11.60;87.80;;;;;;4984537;28;117546;-85
2020/12/23 12:05:27;;;;;;;;;;;11.70;87.90;;;;;;4984775;28;117452;-85
2020/12/23 12:07:56;;;;;;;;;;;11.70;87.90;;;;;;4985900;28;117938;-85
2020/12/23 12:10:22;;;;;;;;;;;11.70;88.30;;;;;;4984299;28;119212;-85
2020/12/23 12:13:08;;;;;;;;;;;11.70;88.30;;;;;;4984418;28;117420;-85
2020/12/23 12:25:39;;;;;;;;;;;11.70;88.10;;;;;;4985319;28;117386;-85
2020/12/23 12:28:05;;;;;;;;;;;11.70;88.20;;;;;;4984008;28;117481;-85
2020/12/23 12:30:35;;;;;;;;;;;11.70;88.30;;;;;;4984885;28;117807;-85
2020/12/23 12:33:01;;;;;;;;;;;11.70;88.40;;;;;;4984083;28;119648;-85
2020/12/23 12:35:27;;;;;;;;;;;11.70;87.80;;;;;;4984160;28;117686;-85
2020/12/23 12:37:56;;;;;;;;;;;11.70;88.20;;;;;;4984911;28;117605;-85
2020/12/23 12:40:21;;;;;;;;;;;11.70;87.70;;;;;;4985145;28;117897;-85
2020/12/23 12:42:47;;;;;;;;;;;11.70;88.10;;;;;;4984074;28;120208;-85
2020/12/23 12:45:13;;;;;;;;;;;11.70;88.30;;;;;;4983758;28;118996;-85
2020/12/23 12:47:39;;;;;;;;;;;11.70;88.00;;;;;;4984795;28;117445;-85
2020/12/23 12:50:04;;;;;;;;;;;11.70;87.90;;;;;;4984492;28;117476;-85
2020/12/23 12:52:30;;;;;;;;;;;11.70;87.80;;;;;;4983734;28;119583;-85
2020/12/23 12:54:56;;;;;;;;;;;11.70;88.00;;;;;;4983908;28;118127;-85
2020/12/23 12:57:22;;;;;;;;;;;11.70;88.00;;;;;;4984505;28;117492;-85
2020/12/23 12:59:53;;;;;;;;;;;11.70;88.10;;;;;;4984366;28;117961;-85
2020/12/23 13:02:19;;;;;;;;;;;11.70;87.80;;;;;;4983794;28;120815;-85
2020/12/23 13:04:51;;;;;;;;;;;11.70;88.00;;;;;;4983564;28;120589;-85
2020/12/23 13:07:27;;;;;;;;;;;11.70;87.80;;;;;;4984587;28;117595;-85
2020/12/23 13:09:53;;;;;;;;;;;11.70;88.00;;;;;;4984323;28;117797;-85
2020/12/23 13:12:22;;;;;;;;;;;11.70;87.60;;;;;;4983157;28;117472;-85
2020/12/23 13:14:47;;;;;;;;;;;11.70;88.30;;;;;;4982884;28;119865;-85
2020/12/23 13:17:16;;;;;;;;;;;11.70;87.90;;;;;;4984078;28;117285;-85
2020/12/23 13:19:42;;;;;;;;;;;11.70;87.90;;;;;;4984354;28;117863;-85
2020/12/23 13:22:07;;;;;;;;;;;11.70;87.80;;;;;;4983291;28;121017;-85
2020/12/23 13:24:36;;;;;;;;;;;11.70;88.00;;;;;;4983523;28;119501;-85
2020/12/23 13:27:02;;;;;;;;;;;11.70;88.00;;;;;;4984019;28;117761;-85
2020/12/23 13:29:31;;;;;;;;;;;11.70;87.80;;;;;;4984224;28;117713;-85
2020/12/23 13:31:59;;;;;;;;;;;11.70;87.90;;;;;;4983591;28;119492;-85
2020/12/23 13:34:24;;;;;;;;;;;11.80;88.00;;;;;;4983076;28;119776;-85
2020/12/23 13:36:50;;;;;;;;;;;11.70;87.80;;;;;;4984015;28;117520;-85
2020/12/23 13:39:16;;;;;;;;;;;11.70;87.70;;;;;;4982498;28;118000;-85
2020/12/23 13:41:41;;;;;;;;;;;11.70;87.60;;;;;;4982964;28;117259;-85
2020/12/23 13:44:07;;;;;;;;;;;11.70;87.70;;;;;;4983079;28;117566;-85
2020/12/23 13:46:33;;;;;;;;;;;11.70;88.10;;;;;;4984179;28;117323;-85
2020/12/23 13:49:03;;;;;;;;;;;11.70;88.20;;;;;;4984304;28;117749;-85
2020/12/23 13:51:29;;;;;;;;;;;11.70;88.00;;;;;;4983046;28;117603;-85
2020/12/23 13:53:54;;;;;;;;;;;11.70;87.90;;;;;;4982971;28;119482;-85
2020/12/23 13:56:20;;;;;;;;;;;11.70;87.50;;;;;;4984122;28;117591;-85
2020/12/23 13:58:46;;;;;;;;;;;11.70;87.90;;;;;;4984143;28;117469;-85
2020/12/23 14:01:12;;;;;;;;;;;11.70;87.80;;;;;;4982760;28;117404;-85
2020/12/23 14:03:38;;;;;;;;;;;11.80;88.30;;;;;;4982639;28;117628;-85
2020/12/23 14:06:04;;;;;;;;;;;11.70;88.20;;;;;;4983750;28;117302;-85
2020/12/23 14:08:29;;;;;;;;;;;11.70;87.80;;;;;;4984903;28;117797;-85
2020/12/23 14:10:55;;;;;;;;;;;11.70;87.80;;;;;;4983003;28;118424;-85
2020/12/23 14:13:23;;;;;;;;;;;11.80;88.30;;;;;;4983099;28;118749;-85
2020/12/23 14:15:52;;;;;;;;;;;11.80;87.50;;;;;;5000285;28;117461;-85
2020/12/23 14:18:18;;;;;;;;;;;11.80;88.00;;;;;;4983884;28;117875;-85
2020/12/23 14:20:43;;;;;;;;;;;11.80;87.70;;;;;;4982951;28;117515;-85
2020/12/23 14:23:09;;;;;;;;;;;11.80;87.70;;;;;;4982578;28;118101;-85
2020/12/23 14:25:34;;;;;;;;;;;11.80;87.50;;;;;;4983720;28;117322;-85
2020/12/23 14:28:00;;;;;;;;;;;11.80;87.60;;;;;;5000382;28;117755;-85
2020/12/23 14:30:27;;;;;;;;;;;11.80;87.80;;;;;;4982529;28;120285;-86
2020/12/23 14:32:53;;;;;;;;;;;11.80;87.50;;;;;;4999264;28;117569;-86
2020/12/23 14:35:19;;;;;;;;;;;11.80;87.60;;;;;;4983549;28;117511;-86
2020/12/23 14:37:45;;;;;;;;;;;11.80;87.50;;;;;;4983978;28;117495;-86
2020/12/23 14:40:17;;;;;;;;;;;11.80;88.20;;;;;;4982160;28;118355;-86
2020/12/23 14:42:43;;;;;;;;;;;11.80;88.00;;;;;;4982214;28;119160;-86